KPSC/PSC METAR and TAF weather

Enter ICAO airport designator
Station Type Date Time Source
KPSC METAR 2020/02/28 07:53 UTC NOAA

KPSC 280753Z AUTO 35004KT 10SM CLR 01/M02 A3025 RMK AO2 SLP246 T00111022 401831033


Station Type Date Time Source
KPSC Decoded METAR 2020/02/28 07:53 UTC NOAA

TRI-CITIES AIRPORT, WA, United States (KPSC) 46-16N 119-07W 121M
Feb 28, 2020 - 02:53 AM EST / 2020.02.28 0753 UTC
Wind: from the N (350 degrees) at 5 MPH (4 KT):0
Visibility: 10 mile(s):0
Sky conditions: clear
Temperature: 34.0 F (1.1 C)
Windchill: 30 F (-1 C):1
Dew Point: 28.0 F (-2.2 C)
Relative Humidity: 78%
Pressure (altimeter): 30.25 in. Hg (1024 hPa)
ob: KPSC 280753Z AUTO 35004KT 10SM CLR 01/M02 A3025 RMK AO2 SLP246 T00111022 401831033
cycle: 8

Station Type Date Time Source
KPSC TAF 2020/02/28 06:42 UTC NOAA

TAF KPSC 280539Z 2806/2906 VRB06KT P6SM SCT250
FM281800 VRB06KT P6SM BKN250
FM290100 25012G22KT P6SM FEW100 BKN250

Example: see airport list